createdAt,value
2017-01-03T00:00:11.331Z,1012.01
2017-01-03T00:01:11.346Z,1012.02
2017-01-03T00:02:11.362Z,1011.97
2017-01-03T00:03:11.377Z,1011.96
2017-01-03T00:04:11.391Z,1011.95
2017-01-03T00:05:11.407Z,1011.94
2017-01-03T00:06:11.422Z,1011.93
2017-01-03T00:07:11.436Z,1011.94
2017-01-03T00:09:11.467Z,1011.94
2017-01-03T00:10:11.482Z,1011.96
2017-01-03T00:11:11.496Z,1011.97
2017-01-03T00:12:11.512Z,1011.95
2017-01-03T00:13:11.527Z,1012
2017-01-03T00:14:11.542Z,1012
2017-01-03T00:15:11.556Z,1012
2017-01-03T00:16:11.571Z,1012.03
2017-01-03T00:17:11.587Z,1012.03
2017-01-03T00:18:11.602Z,1011.98
2017-01-03T00:19:11.616Z,1012.02
2017-01-03T00:20:11.631Z,1011.94
2017-01-03T00:21:11.649Z,1011.96
2017-01-03T00:22:11.661Z,1011.99
2017-01-03T00:23:11.676Z,1012.01
2017-01-03T00:25:11.707Z,1011.96
2017-01-03T00:26:11.721Z,1011.95
2017-01-03T00:27:11.737Z,1012.05
2017-01-03T00:28:11.752Z,1011.95
2017-01-03T00:29:11.766Z,1012.06
2017-01-03T00:30:11.781Z,1012.04
2017-01-03T00:31:11.797Z,1012.05
2017-01-03T00:32:11.812Z,1011.98
2017-01-03T00:33:11.826Z,1012.07
2017-01-03T00:34:11.842Z,1011.99
2017-01-03T00:35:11.857Z,1012.07
2017-01-03T00:36:11.872Z,1011.95
2017-01-03T00:37:11.886Z,1011.99
2017-01-03T00:38:11.902Z,1011.98
2017-01-03T00:39:11.917Z,1012.04
2017-01-03T00:41:11.947Z,1011.99
2017-01-03T00:42:11.962Z,1012.03
2017-01-03T00:43:11.977Z,1011.98
2017-01-03T00:44:11.992Z,1011.96
2017-01-03T00:45:12.007Z,1011.99
2017-01-03T00:46:12.022Z,1011.97
2017-01-03T00:47:12.038Z,1011.95
2017-01-03T00:48:12.055Z,1011.98
2017-01-03T00:49:12.067Z,1011.92
2017-01-03T00:50:12.082Z,1011.92
2017-01-03T00:51:12.097Z,1011.95
2017-01-03T00:52:12.112Z,1011.95
2017-01-03T00:53:12.127Z,1011.96
2017-01-03T00:54:12.143Z,1011.97
2017-01-03T00:55:12.157Z,1012.01
2017-01-03T00:57:12.188Z,1011.96
2017-01-03T00:58:12.203Z,1011.91
2017-01-03T00:59:12.218Z,1011.96
2017-01-03T01:00:12.233Z,1011.92
2017-01-03T01:01:12.248Z,1011.88
2017-01-03T01:02:12.262Z,1011.88
2017-01-03T01:03:12.280Z,1011.94
2017-01-03T01:04:12.293Z,1011.87
2017-01-03T01:05:12.309Z,1011.88
2017-01-03T01:06:12.323Z,1011.95
2017-01-03T01:07:12.338Z,1011.96
2017-01-03T01:08:12.354Z,1011.89
2017-01-03T01:09:12.369Z,1012.02
2017-01-03T01:10:12.385Z,1011.98
2017-01-03T01:12:12.415Z,1011.94
2017-01-03T01:13:12.430Z,1011.97
2017-01-03T01:14:12.446Z,1011.98
2017-01-03T01:15:12.461Z,1012.08
2017-01-03T01:16:12.476Z,1012.02
2017-01-03T01:17:12.490Z,1011.88
2017-01-03T01:18:12.506Z,1011.93
2017-01-03T01:19:12.521Z,1011.97
2017-01-03T01:20:12.536Z,1011.95
2017-01-03T01:21:12.551Z,1011.94
2017-01-03T01:22:12.567Z,1011.95
2017-01-03T01:23:12.582Z,1011.96
2017-01-03T01:24:12.597Z,1011.96
2017-01-03T01:25:12.612Z,1011.94
2017-01-03T01:26:12.628Z,1012
2017-01-03T01:27:12.643Z,1011.97
2017-01-03T01:28:12.657Z,1012
2017-01-03T01:29:12.672Z,1012.02
2017-01-03T01:30:12.688Z,1011.98
2017-01-03T01:31:12.702Z,1012
2017-01-03T01:32:12.717Z,1012.04
2017-01-03T01:33:12.733Z,1011.99
2017-01-03T01:34:12.748Z,1012
2017-01-03T01:35:12.763Z,1012.09
2017-01-03T01:36:12.778Z,1012.05
2017-01-03T01:37:12.794Z,1012.06
2017-01-03T01:38:12.809Z,1012.09
2017-01-03T01:39:12.824Z,1012.13
2017-01-03T01:40:12.839Z,1012.16
2017-01-03T01:41:12.855Z,1012.18
2017-01-03T01:42:12.869Z,1012.18
2017-01-03T01:44:12.900Z,1012.15
2017-01-03T01:45:12.915Z,1012.15
2017-01-03T01:46:12.930Z,1012.15
2017-01-03T01:47:12.945Z,1012.16
2017-01-03T01:48:12.961Z,1012.16
2017-01-03T01:49:12.976Z,1012.24
2017-01-03T01:50:12.991Z,1012.13
2017-01-03T01:51:13.006Z,1012.06
2017-01-03T01:52:13.021Z,1012.16
2017-01-03T01:53:13.036Z,1012.17
2017-01-03T01:54:13.051Z,1012.16
2017-01-03T01:55:13.067Z,1012.15
2017-01-03T01:56:13.085Z,1012.12
2017-01-03T01:57:13.097Z,1012.14
2017-01-03T01:58:13.112Z,1012.13
2017-01-03T02:00:13.144Z,1012.09
2017-01-03T02:01:13.158Z,1012.07
2017-01-03T02:02:13.175Z,1012.04
2017-01-03T02:03:13.189Z,1012.02
2017-01-03T02:04:13.204Z,1012.11
2017-01-03T02:05:13.220Z,1012.05
2017-01-03T02:06:13.236Z,1012.07
2017-01-03T02:07:13.251Z,1012.09
2017-01-03T02:08:13.266Z,1012.05
2017-01-03T02:09:13.285Z,1012.03
2017-01-03T02:10:13.347Z,1012.11
2017-01-03T02:11:13.312Z,1012.03
2017-01-03T02:12:13.327Z,1012
2017-01-03T02:13:13.342Z,1012.02
2017-01-03T02:14:13.359Z,1012.02
2017-01-03T02:16:13.389Z,1012.04
2017-01-03T02:17:13.405Z,1012.06
2017-01-03T02:18:13.420Z,1012.1
2017-01-03T02:19:13.435Z,1012.11
2017-01-03T02:20:13.451Z,1012.06
2017-01-03T02:21:13.471Z,1012.05
2017-01-03T02:22:13.482Z,1012.14
2017-01-03T02:23:13.496Z,1012.08
2017-01-03T02:24:13.512Z,1012.01
2017-01-03T02:25:13.528Z,1011.98
2017-01-03T02:26:13.542Z,1012
2017-01-03T02:27:13.558Z,1012.02
2017-01-03T02:28:13.574Z,1012.02
2017-01-03T02:29:13.590Z,1011.99
2017-01-03T02:30:13.604Z,1012.01
2017-01-03T02:32:13.636Z,1012
2017-01-03T02:33:13.651Z,1011.99
2017-01-03T02:34:13.666Z,1011.97
2017-01-03T02:35:13.681Z,1011.89
2017-01-03T02:36:13.698Z,1011.86
2017-01-03T02:37:13.712Z,1011.84
2017-01-03T02:38:13.728Z,1011.85
2017-01-03T02:39:13.743Z,1011.82
2017-01-03T02:40:13.759Z,1011.72
2017-01-03T02:41:13.773Z,1011.88
2017-01-03T02:42:13.790Z,1011.82
2017-01-03T02:43:13.805Z,1011.83
2017-01-03T02:44:13.821Z,1011.81
2017-01-03T02:45:13.836Z,1011.83
2017-01-03T02:47:13.868Z,1011.86
2017-01-03T02:48:13.883Z,1011.85
2017-01-03T02:49:13.899Z,1011.86
2017-01-03T02:50:13.915Z,1011.86
2017-01-03T02:51:13.932Z,1011.84
2017-01-03T02:52:13.945Z,1011.86
2017-01-03T02:53:13.960Z,1011.87
2017-01-03T02:54:13.976Z,1011.87
2017-01-03T02:55:13.991Z,1011.8
2017-01-03T02:56:14.007Z,1011.84
2017-01-03T02:57:14.022Z,1011.87
2017-01-03T02:58:14.038Z,1011.84
2017-01-03T02:59:14.053Z,1011.82
2017-01-03T03:00:14.069Z,1011.81
2017-01-03T03:01:14.084Z,1011.84
2017-01-03T03:02:14.100Z,1011.79
2017-01-03T03:03:14.115Z,1011.8
2017-01-03T03:04:14.131Z,1011.91
2017-01-03T03:05:14.147Z,1011.81
2017-01-03T03:06:14.162Z,1011.8
2017-01-03T03:07:14.177Z,1011.77
2017-01-03T03:08:14.193Z,1011.8
2017-01-03T03:09:14.208Z,1011.81
2017-01-03T03:10:14.224Z,1011.84
2017-01-03T03:11:14.239Z,1011.77
2017-01-03T03:12:14.255Z,1011.78
2017-01-03T03:13:14.271Z,1011.79
2017-01-03T03:14:14.286Z,1011.82
2017-01-03T03:15:14.302Z,1011.82
2017-01-03T03:16:14.317Z,1011.79
2017-01-03T03:17:14.332Z,1011.8
2017-01-03T03:19:14.364Z,1011.81
2017-01-03T03:20:14.380Z,1011.8
2017-01-03T03:21:14.395Z,1011.83
2017-01-03T03:22:14.411Z,1011.85
2017-01-03T03:23:14.426Z,1011.83
2017-01-03T03:24:14.442Z,1011.8
2017-01-03T03:25:14.457Z,1011.8
2017-01-03T03:26:14.473Z,1011.75
2017-01-03T03:27:14.489Z,1011.72
2017-01-03T03:28:14.504Z,1011.7
2017-01-03T03:29:14.520Z,1011.68
2017-01-03T03:30:14.536Z,1011.64
2017-01-03T03:31:14.552Z,1011.69
2017-01-03T03:32:14.567Z,1011.66
2017-01-03T03:33:14.582Z,1011.66
2017-01-03T03:35:14.614Z,1011.6
2017-01-03T03:36:14.629Z,1011.66
2017-01-03T03:37:14.645Z,1011.66
2017-01-03T03:38:14.661Z,1011.67
2017-01-03T03:39:14.676Z,1011.68
2017-01-03T03:40:14.692Z,1011.67
2017-01-03T03:41:14.708Z,1011.68
2017-01-03T03:42:14.724Z,1011.66
2017-01-03T03:43:14.738Z,1011.65
2017-01-03T03:44:14.754Z,1011.6
2017-01-03T03:45:14.770Z,1011.58
2017-01-03T03:46:14.786Z,1011.62
2017-01-03T03:47:14.801Z,1011.58
2017-01-03T03:48:14.817Z,1011.54
2017-01-03T03:49:14.833Z,1011.61
2017-01-03T03:51:14.864Z,1011.64
2017-01-03T03:52:14.880Z,1011.68
2017-01-03T03:53:14.895Z,1011.7
2017-01-03T03:54:14.913Z,1011.75
2017-01-03T03:55:14.926Z,1011.71
2017-01-03T03:56:14.942Z,1011.79
2017-01-03T03:57:14.958Z,1011.76
2017-01-03T03:58:14.973Z,1011.71
2017-01-03T03:59:14.989Z,1011.78
2017-01-03T04:00:15.005Z,1011.77
2017-01-03T04:01:15.020Z,1011.79
2017-01-03T04:02:15.035Z,1011.73
2017-01-03T04:03:15.051Z,1011.66
2017-01-03T04:04:15.067Z,1011.49
2017-01-03T04:05:15.082Z,1011.5
2017-01-03T04:07:15.114Z,1011.52
2017-01-03T04:08:15.131Z,1011.51
2017-01-03T04:09:15.145Z,1011.46
2017-01-03T04:10:15.160Z,1011.53
2017-01-03T04:11:15.177Z,1011.48
2017-01-03T04:12:15.191Z,1011.48
2017-01-03T04:13:15.207Z,1011.45
2017-01-03T04:14:15.223Z,1011.43
2017-01-03T04:15:15.239Z,1011.43
2017-01-03T04:16:15.254Z,1011.39
2017-01-03T04:17:15.269Z,1011.39
2017-01-03T04:18:15.286Z,1011.4
2017-01-03T04:19:15.301Z,1011.36
2017-01-03T04:20:15.317Z,1011.39
2017-01-03T04:22:15.349Z,1011.3
2017-01-03T04:23:15.364Z,1011.3
2017-01-03T04:24:15.381Z,1011.31
2017-01-03T04:25:15.396Z,1011.38
2017-01-03T04:26:15.411Z,1011.35
2017-01-03T04:27:15.426Z,1011.31
2017-01-03T04:28:15.442Z,1011.36
2017-01-03T04:29:15.458Z,1011.25
2017-01-03T04:30:15.473Z,1011.32
2017-01-03T04:31:15.489Z,1011.35
2017-01-03T04:32:15.504Z,1011.38
2017-01-03T04:33:15.521Z,1011.33
2017-01-03T04:34:15.535Z,1011.28
2017-01-03T04:35:15.551Z,1011.27
2017-01-03T04:36:15.567Z,1011.28
2017-01-03T04:37:15.583Z,1011.31
2017-01-03T04:38:15.598Z,1011.34
2017-01-03T04:39:15.614Z,1011.36
2017-01-03T04:40:15.629Z,1011.26
2017-01-03T04:41:15.645Z,1011.36
2017-01-03T04:42:15.660Z,1011.35
2017-01-03T04:43:15.676Z,1011.39
2017-01-03T04:44:15.692Z,1011.36
2017-01-03T04:45:15.707Z,1011.38
2017-01-03T04:46:15.723Z,1011.41
2017-01-03T04:47:15.739Z,1011.43
2017-01-03T04:48:16.058Z,1011.41
2017-01-03T04:49:15.770Z,1011.42
2017-01-03T04:50:15.786Z,1011.43
2017-01-03T04:51:15.801Z,1011.45
2017-01-03T04:52:15.816Z,1011.52
2017-01-03T04:54:15.848Z,1011.46
2017-01-03T04:55:15.864Z,1011.49
2017-01-03T04:56:15.879Z,1011.47
2017-01-03T04:57:15.895Z,1011.46
2017-01-03T04:58:15.911Z,1011.58
2017-01-03T04:59:15.927Z,1011.51
2017-01-03T05:00:15.942Z,1011.48
2017-01-03T05:01:15.958Z,1011.52
2017-01-03T05:02:15.975Z,1011.56
2017-01-03T05:03:15.989Z,1011.55
2017-01-03T05:04:16.005Z,1011.54
2017-01-03T05:05:16.021Z,1011.55
2017-01-03T05:06:16.037Z,1011.58
2017-01-03T05:07:16.052Z,1011.66
2017-01-03T05:08:16.068Z,1011.54
2017-01-03T05:10:16.100Z,1011.57
2017-01-03T05:11:16.115Z,1011.57
2017-01-03T05:12:16.131Z,1011.54
2017-01-03T05:13:16.149Z,1011.56
2017-01-03T05:14:16.161Z,1011.56
2017-01-03T05:15:16.178Z,1011.5
2017-01-03T05:16:16.193Z,1011.55
2017-01-03T05:17:16.216Z,1011.47
2017-01-03T05:18:16.224Z,1011.55
2017-01-03T05:19:16.240Z,1011.53
2017-01-03T05:20:16.256Z,1011.53
2017-01-03T05:21:16.272Z,1011.54
2017-01-03T05:22:16.287Z,1011.49
2017-01-03T05:23:16.303Z,1011.57
2017-01-03T05:24:16.319Z,1011.56
2017-01-03T05:26:16.349Z,1011.49
2017-01-03T05:27:16.365Z,1011.44
2017-01-03T05:28:16.381Z,1011.37
2017-01-03T05:29:16.396Z,1011.34
2017-01-03T05:30:16.412Z,1011.34
2017-01-03T05:31:16.428Z,1011.35
2017-01-03T05:32:16.444Z,1011.26
2017-01-03T05:33:16.458Z,1011.32
2017-01-03T05:34:16.475Z,1011.24
2017-01-03T05:35:16.491Z,1011.21
2017-01-03T05:36:16.505Z,1011.23
2017-01-03T05:37:16.522Z,1011.23
2017-01-03T05:38:16.538Z,1011.31
2017-01-03T05:39:16.554Z,1011.36
2017-01-03T05:40:16.569Z,1011.34
2017-01-03T05:42:16.601Z,1011.37
2017-01-03T05:43:16.617Z,1011.38
2017-01-03T05:44:16.632Z,1011.31
2017-01-03T05:45:16.648Z,1011.31
2017-01-03T05:46:16.664Z,1011.31
2017-01-03T05:47:16.679Z,1011.39
2017-01-03T05:48:16.695Z,1011.34
2017-01-03T05:49:16.711Z,1011.35
2017-01-03T05:50:16.728Z,1011.34
2017-01-03T05:51:16.743Z,1011.32
2017-01-03T05:52:16.759Z,1011.36
2017-01-03T05:53:16.775Z,1011.43
2017-01-03T05:54:16.791Z,1011.42
2017-01-03T05:55:16.807Z,1011.41
2017-01-03T05:57:16.839Z,1011.4
2017-01-03T05:58:16.855Z,1011.37
2017-01-03T05:59:16.870Z,1011.39
2017-01-03T06:00:16.887Z,1011.35
2017-01-03T06:01:16.903Z,1011.31
2017-01-03T06:02:16.918Z,1011.38
2017-01-03T06:03:16.934Z,1011.33
2017-01-03T06:04:16.950Z,1011.39
2017-01-03T06:05:16.965Z,1011.33
2017-01-03T06:06:16.981Z,1011.41
2017-01-03T06:07:16.998Z,1011.37
2017-01-03T06:08:17.014Z,1011.29
2017-01-03T06:09:17.029Z,1011.38
2017-01-03T06:10:17.046Z,1011.34
2017-01-03T06:11:17.061Z,1011.34
2017-01-03T06:12:17.077Z,1011.36
2017-01-03T06:13:17.092Z,1011.27
2017-01-03T06:14:17.110Z,1011.33
2017-01-03T06:15:17.125Z,1011.35
2017-01-03T06:16:17.140Z,1011.28
2017-01-03T06:17:17.156Z,1011.31
2017-01-03T06:18:17.172Z,1011.24
2017-01-03T06:19:17.188Z,1011.31
2017-01-03T06:20:17.203Z,1011.33
2017-01-03T06:21:17.220Z,1011.3
2017-01-03T06:22:17.236Z,1011.34
2017-01-03T06:23:17.252Z,1011.32
2017-01-03T06:24:17.267Z,1011.35
2017-01-03T06:25:17.283Z,1011.33
2017-01-03T06:26:17.300Z,1011.41
2017-01-03T06:27:17.315Z,1011.41
2017-01-03T06:29:17.347Z,1011.39
2017-01-03T06:30:17.364Z,1011.45
2017-01-03T06:31:17.379Z,1011.42
2017-01-03T06:32:17.395Z,1011.36
2017-01-03T06:33:17.411Z,1011.38
2017-01-03T06:34:17.427Z,1011.4
2017-01-03T06:35:17.443Z,1011.44
2017-01-03T06:36:17.459Z,1011.44
2017-01-03T06:37:17.476Z,1011.39
2017-01-03T06:38:17.490Z,1011.36
2017-01-03T06:39:17.507Z,1011.34
2017-01-03T06:40:17.523Z,1011.4
2017-01-03T06:41:17.539Z,1011.43
2017-01-03T06:42:17.554Z,1011.35
2017-01-03T06:43:17.570Z,1011.39
2017-01-03T06:45:17.603Z,1011.37
2017-01-03T06:46:17.618Z,1011.38
2017-01-03T06:47:17.634Z,1011.44
2017-01-03T06:48:17.651Z,1011.4
2017-01-03T06:49:17.666Z,1011.42
2017-01-03T06:50:17.684Z,1011.43
2017-01-03T06:51:17.699Z,1011.47
2017-01-03T06:52:17.715Z,1011.39
2017-01-03T06:53:17.730Z,1011.42
2017-01-03T06:54:17.746Z,1011.39
2017-01-03T06:55:17.762Z,1011.37
2017-01-03T06:56:17.779Z,1011.31
2017-01-03T06:57:17.793Z,1011.3
2017-01-03T06:58:17.810Z,1011.37
2017-01-03T06:59:17.826Z,1011.4
2017-01-03T07:01:17.858Z,1011.5
2017-01-03T07:02:17.874Z,1011.49
2017-01-03T07:03:17.890Z,1011.45
2017-01-03T07:04:17.906Z,1011.44
2017-01-03T07:05:17.924Z,1011.46
2017-01-03T07:06:17.938Z,1011.46
2017-01-03T07:07:17.955Z,1011.44
2017-01-03T07:08:17.970Z,1011.49
2017-01-03T07:09:17.986Z,1011.58
2017-01-03T07:10:18.004Z,1011.4
2017-01-03T07:11:18.018Z,1011.52
2017-01-03T07:12:18.035Z,1011.59
2017-01-03T07:13:18.051Z,1011.45
2017-01-03T07:14:18.067Z,1011.47
2017-01-03T07:15:18.082Z,1011.48
2017-01-03T07:17:18.115Z,1011.43
2017-01-03T07:18:18.131Z,1011.4
2017-01-03T07:19:18.146Z,1011.41
2017-01-03T07:20:18.164Z,1011.42
2017-01-03T07:21:18.179Z,1011.42
2017-01-03T07:22:18.194Z,1011.48
2017-01-03T07:23:18.210Z,1011.42
2017-01-03T07:24:18.227Z,1011.4
2017-01-03T07:25:18.243Z,1011.44
2017-01-03T07:26:18.259Z,1011.37
2017-01-03T07:27:18.275Z,1011.37
2017-01-03T07:28:18.291Z,1011.38
2017-01-03T07:29:18.358Z,1011.42
2017-01-03T07:30:18.324Z,1011.36
2017-01-03T07:32:18.356Z,1011.39
2017-01-03T07:33:18.372Z,1011.44
2017-01-03T07:34:18.389Z,1011.4
2017-01-03T07:35:18.405Z,1011.43
2017-01-03T07:36:18.421Z,1011.35
2017-01-03T07:37:18.437Z,1011.36
2017-01-03T07:38:18.452Z,1011.37
2017-01-03T07:39:18.469Z,1011.43
2017-01-03T07:40:18.484Z,1011.39
2017-01-03T07:41:18.501Z,1011.51
2017-01-03T07:42:18.517Z,1011.41
2017-01-03T07:43:18.534Z,1011.46
2017-01-03T07:44:18.550Z,1011.44
2017-01-03T07:45:18.565Z,1011.48
2017-01-03T07:46:18.582Z,1011.47
2017-01-03T07:47:18.598Z,1011.5
2017-01-03T07:48:18.613Z,1011.45
2017-01-03T07:49:18.630Z,1011.41
2017-01-03T07:50:18.646Z,1011.44
2017-01-03T07:51:18.662Z,1011.46
2017-01-03T07:52:18.678Z,1011.42
2017-01-03T07:53:18.694Z,1011.41
2017-01-03T07:54:18.711Z,1011.4
2017-01-03T07:55:18.726Z,1011.43
2017-01-03T07:56:18.742Z,1011.43
2017-01-03T07:57:18.759Z,1011.43
2017-01-03T07:58:18.775Z,1011.4
2017-01-03T07:59:18.790Z,1011.4
2017-01-03T08:00:18.807Z,1011.44
2017-01-03T08:01:18.823Z,1011.39
2017-01-03T08:02:18.839Z,1011.34
2017-01-03T08:04:18.871Z,1011.38
2017-01-03T08:05:18.889Z,1011.39
2017-01-03T08:06:18.903Z,1011.24
2017-01-03T08:07:18.919Z,1011.35
2017-01-03T08:08:18.936Z,1011.34
2017-01-03T08:09:18.952Z,1011.33
2017-01-03T08:10:18.968Z,1011.31
2017-01-03T08:11:18.984Z,1011.32
2017-01-03T08:12:19.000Z,1011.33
2017-01-03T08:13:19.016Z,1011.26
2017-01-03T08:14:19.032Z,1011.18
2017-01-03T08:15:19.049Z,1011.2
2017-01-03T08:16:19.065Z,1011.21
2017-01-03T08:17:19.081Z,1011.22
2017-01-03T08:18:19.097Z,1011.19
2017-01-03T08:20:19.130Z,1011.17
2017-01-03T08:21:19.145Z,1011.17
2017-01-03T08:22:19.162Z,1011.18
2017-01-03T08:23:19.178Z,1011.22
2017-01-03T08:24:19.194Z,1011.2
2017-01-03T08:25:19.210Z,1011.14
2017-01-03T08:26:19.227Z,1011.14
2017-01-03T08:27:19.243Z,1011.16
2017-01-03T08:28:19.259Z,1011.17
2017-01-03T08:29:19.275Z,1011.23
2017-01-03T08:30:19.292Z,1011.24
2017-01-03T08:31:19.308Z,1011.27
2017-01-03T08:32:19.324Z,1011.23
2017-01-03T08:33:19.340Z,1011.17
2017-01-03T08:34:19.358Z,1011.17
2017-01-03T08:36:19.389Z,1011.22
2017-01-03T08:37:19.405Z,1011.16
2017-01-03T08:38:19.421Z,1011.19
2017-01-03T08:39:19.437Z,1011.36
2017-01-03T08:40:19.453Z,1011.28
2017-01-03T08:41:19.470Z,1011.25
2017-01-03T08:42:19.486Z,1011.3
2017-01-03T08:43:19.502Z,1011.3
2017-01-03T08:44:19.518Z,1011.27
2017-01-03T08:45:19.535Z,1011.26
2017-01-03T08:46:19.551Z,1011.28
2017-01-03T08:47:19.567Z,1011.28
2017-01-03T08:48:19.583Z,1011.2
2017-01-03T08:49:19.600Z,1011.25
2017-01-03T08:50:19.616Z,1011.19
2017-01-03T08:52:19.649Z,1011.21
2017-01-03T08:53:19.665Z,1011.21
2017-01-03T08:54:19.681Z,1011.18
2017-01-03T08:55:19.698Z,1011.12
2017-01-03T08:56:19.714Z,1011.21
2017-01-03T08:57:19.730Z,1011.12
2017-01-03T08:58:19.746Z,1011.14
2017-01-03T08:59:19.763Z,1011.22
2017-01-03T09:00:19.779Z,1011.2
2017-01-03T09:01:19.795Z,1011.2
2017-01-03T09:02:19.811Z,1011.16
2017-01-03T09:03:19.828Z,1011.23
2017-01-03T09:04:19.845Z,1011.2
2017-01-03T09:05:19.861Z,1011.22
2017-01-03T09:07:19.894Z,1011.22
2017-01-03T09:08:19.909Z,1011.17
2017-01-03T09:09:19.925Z,1011.12
2017-01-03T09:10:19.942Z,1011.17
2017-01-03T09:11:19.958Z,1011.15
2017-01-03T09:12:19.973Z,1011.08
2017-01-03T09:13:19.990Z,1011.21
2017-01-03T09:14:20.007Z,1011.16
2017-01-03T09:15:20.022Z,1011.15
2017-01-03T09:16:20.038Z,1011.18
2017-01-03T09:17:20.054Z,1011.11
2017-01-03T09:18:20.071Z,1011.09
2017-01-03T09:19:20.087Z,1011.05
2017-01-03T09:20:20.103Z,1011.06
2017-01-03T09:21:20.119Z,1011.06
2017-01-03T09:22:20.136Z,1011.1
2017-01-03T09:23:20.151Z,1011.09
2017-01-03T09:24:20.168Z,1011.02
2017-01-03T09:25:20.184Z,1010.98
2017-01-03T09:26:20.203Z,1011.15
2017-01-03T09:27:20.217Z,1011
2017-01-03T09:28:20.233Z,1010.96
2017-01-03T09:29:20.249Z,1011.03
2017-01-03T09:30:20.264Z,1011.04
2017-01-03T09:31:20.281Z,1011.06
2017-01-03T09:32:20.297Z,1011.07
2017-01-03T09:33:20.314Z,1011.01
2017-01-03T09:34:20.329Z,1010.95
2017-01-03T09:35:20.346Z,1010.86
2017-01-03T09:36:20.362Z,1010.92
2017-01-03T09:37:20.378Z,1010.95
2017-01-03T09:39:20.411Z,1010.81
2017-01-03T09:40:20.427Z,1010.78
2017-01-03T09:41:20.443Z,1010.91
2017-01-03T09:42:20.462Z,1010.89
2017-01-03T09:43:20.476Z,1010.89
2017-01-03T09:44:20.493Z,1010.86
2017-01-03T09:45:20.508Z,1010.9
2017-01-03T09:46:20.525Z,1010.89
2017-01-03T09:47:20.541Z,1010.81
2017-01-03T09:48:20.557Z,1010.87
2017-01-03T09:49:20.573Z,1010.76
2017-01-03T09:50:20.590Z,1010.79
2017-01-03T09:51:20.607Z,1010.78
2017-01-03T09:52:20.622Z,1010.78
2017-01-03T09:53:20.640Z,1010.73
2017-01-03T09:55:20.673Z,1010.73
2017-01-03T09:56:20.688Z,1010.67
2017-01-03T09:57:20.704Z,1010.72
2017-01-03T09:58:20.722Z,1010.77
2017-01-03T09:59:20.737Z,1010.66
2017-01-03T10:00:20.754Z,1010.69
2017-01-03T10:01:20.770Z,1010.71
2017-01-03T10:02:20.787Z,1010.65
2017-01-03T10:03:20.803Z,1010.7
2017-01-03T10:04:20.820Z,1010.62
2017-01-03T10:05:20.837Z,1010.61
2017-01-03T10:06:20.853Z,1010.54
2017-01-03T10:07:20.869Z,1010.56
2017-01-03T10:08:20.886Z,1010.59
2017-01-03T10:09:20.903Z,1010.62
2017-01-03T10:11:20.935Z,1010.65
2017-01-03T10:12:20.952Z,1010.52
2017-01-03T10:13:20.969Z,1010.43
2017-01-03T10:14:20.984Z,1010.49
2017-01-03T10:15:21.001Z,1010.56
2017-01-03T10:16:21.018Z,1010.5
2017-01-03T10:17:21.035Z,1010.5
2017-01-03T10:18:21.050Z,1010.46
2017-01-03T10:19:21.067Z,1010.44
2017-01-03T10:20:21.084Z,1010.44
2017-01-03T10:21:21.100Z,1010.46
2017-01-03T10:22:21.119Z,1010.47
2017-01-03T10:23:21.134Z,1010.45
2017-01-03T10:24:21.151Z,1010.43
2017-01-03T10:25:21.166Z,1010.44
2017-01-03T10:27:21.200Z,1010.5
2017-01-03T10:28:21.216Z,1010.58
2017-01-03T10:29:21.233Z,1010.59
2017-01-03T10:30:21.249Z,1010.44
2017-01-03T10:31:21.267Z,1010.41
2017-01-03T10:32:21.282Z,1010.38
2017-01-03T10:33:21.299Z,1010.38
2017-01-03T10:34:21.316Z,1010.35
2017-01-03T10:35:21.333Z,1010.45
2017-01-03T10:36:21.349Z,1010.47
2017-01-03T10:37:21.366Z,1010.49
2017-01-03T10:38:21.382Z,1010.4
2017-01-03T10:39:21.399Z,1010.43
2017-01-03T10:40:21.416Z,1010.54
2017-01-03T10:42:21.450Z,1010.48
2017-01-03T10:43:21.466Z,1010.42
2017-01-03T10:44:21.483Z,1010.34
2017-01-03T10:45:21.499Z,1010.31
2017-01-03T10:46:21.517Z,1010.31
2017-01-03T10:47:21.532Z,1010.25
2017-01-03T10:48:21.549Z,1010.33
2017-01-03T10:49:21.566Z,1010.28
2017-01-03T10:50:21.582Z,1010.25
2017-01-03T10:51:21.599Z,1010.3
2017-01-03T10:52:21.616Z,1010.26
2017-01-03T10:53:21.633Z,1010.26
2017-01-03T10:54:21.649Z,1010.21
2017-01-03T10:55:21.666Z,1010.21
2017-01-03T10:56:21.683Z,1010.21
2017-01-03T10:57:21.701Z,1010.22
2017-01-03T10:58:21.717Z,1010.15
2017-01-03T10:59:21.734Z,1010.24
2017-01-03T11:00:21.751Z,1010.09
2017-01-03T11:01:21.767Z,1010.17
2017-01-03T11:02:21.784Z,1010.13
2017-01-03T11:03:21.801Z,1010.11
2017-01-03T11:04:21.818Z,1010.13
2017-01-03T11:05:21.835Z,1010.08
2017-01-03T11:06:21.852Z,1010.13
2017-01-03T11:07:21.869Z,1010.09
2017-01-03T11:08:21.886Z,1010.07
2017-01-03T11:09:21.902Z,1010.08
2017-01-03T11:10:21.920Z,1010.07
2017-01-03T11:11:21.937Z,1010.05
2017-01-03T11:12:21.953Z,1010.07
2017-01-03T11:14:21.987Z,1010.06
2017-01-03T11:15:22.004Z,1009.93
2017-01-03T11:16:22.021Z,1009.97
2017-01-03T11:17:22.037Z,1009.91
2017-01-03T11:18:22.056Z,1009.96
2017-01-03T11:19:22.072Z,1009.99
2017-01-03T11:20:22.088Z,1009.89
2017-01-03T11:21:22.105Z,1009.89
2017-01-03T11:22:22.122Z,1009.86
2017-01-03T11:23:22.139Z,1009.84
2017-01-03T11:24:22.156Z,1009.82
2017-01-03T11:25:22.173Z,1009.79
2017-01-03T11:26:22.194Z,1009.76
2017-01-03T11:27:22.206Z,1009.74
2017-01-03T11:28:22.223Z,1009.66
2017-01-03T11:30:22.258Z,1009.72
2017-01-03T11:31:22.274Z,1009.73
2017-01-03T11:32:22.291Z,1009.58
2017-01-03T11:33:22.309Z,1009.65
2017-01-03T11:34:22.325Z,1009.6
2017-01-03T11:35:22.342Z,1009.63
2017-01-03T11:36:22.359Z,1009.58
2017-01-03T11:37:22.376Z,1009.65
2017-01-03T11:38:22.393Z,1009.58
2017-01-03T11:39:22.410Z,1009.58
2017-01-03T11:40:22.427Z,1009.63
2017-01-03T11:41:22.444Z,1009.62
2017-01-03T11:42:22.461Z,1009.58
2017-01-03T11:43:22.478Z,1009.66
2017-01-03T11:44:22.495Z,1009.61
2017-01-03T11:46:22.529Z,1009.58
2017-01-03T11:47:22.546Z,1009.63
2017-01-03T11:48:22.565Z,1009.56
2017-01-03T11:49:22.579Z,1009.59
2017-01-03T11:50:22.597Z,1009.47
2017-01-03T11:51:22.614Z,1009.53
2017-01-03T11:52:22.632Z,1009.5
2017-01-03T11:53:22.648Z,1009.47
2017-01-03T11:54:22.665Z,1009.4
2017-01-03T11:55:22.682Z,1009.35
2017-01-03T11:56:22.698Z,1009.38
2017-01-03T11:57:22.715Z,1009.31
2017-01-03T11:58:22.733Z,1009.32
2017-01-03T11:59:22.750Z,1009.27
2017-01-03T12:00:22.766Z,1009.29
2017-01-03T12:02:22.801Z,1009.16
2017-01-03T12:03:22.818Z,1009.1
2017-01-03T12:04:22.835Z,1009.08
2017-01-03T12:05:22.852Z,1009.04
2017-01-03T12:06:22.869Z,1008.98
2017-01-03T12:07:22.885Z,1008.94
2017-01-03T12:08:22.903Z,1009.06
2017-01-03T12:09:22.920Z,1009
2017-01-03T12:10:22.937Z,1008.96
2017-01-03T12:11:22.954Z,1008.94
2017-01-03T12:12:22.971Z,1008.93
2017-01-03T12:13:22.988Z,1008.95
2017-01-03T12:14:23.006Z,1008.89
2017-01-03T12:15:23.025Z,1008.76
2017-01-03T12:17:23.068Z,1008.78
2017-01-03T12:18:23.074Z,1008.84
2017-01-03T12:19:23.092Z,1008.69
2017-01-03T12:20:23.109Z,1008.66
2017-01-03T12:21:23.127Z,1008.77
2017-01-03T12:22:23.143Z,1008.73
2017-01-03T12:23:23.160Z,1008.72
2017-01-03T12:24:23.177Z,1008.78
2017-01-03T12:25:23.194Z,1008.83
2017-01-03T12:26:23.211Z,1008.79
2017-01-03T12:27:23.229Z,1008.86
2017-01-03T12:28:23.246Z,1008.79
2017-01-03T12:29:23.262Z,1008.77
2017-01-03T12:30:23.280Z,1008.63
2017-01-03T12:31:23.297Z,1008.63
2017-01-03T12:32:23.314Z,1008.71
2017-01-03T12:33:23.331Z,1008.63
2017-01-03T12:34:23.348Z,1008.64
2017-01-03T12:35:23.365Z,1008.61
2017-01-03T12:36:23.381Z,1008.54
2017-01-03T12:37:23.399Z,1008.67
2017-01-03T12:38:23.416Z,1008.57
2017-01-03T12:39:23.433Z,1008.56
2017-01-03T12:40:23.450Z,1008.45
2017-01-03T12:41:23.467Z,1008.52
2017-01-03T12:42:23.484Z,1008.45
2017-01-03T12:43:23.502Z,1008.49
2017-01-03T12:44:23.518Z,1008.39
2017-01-03T12:45:23.535Z,1008.39
2017-01-03T12:46:23.552Z,1008.4
2017-01-03T12:47:23.569Z,1008.44
2017-01-03T12:49:23.603Z,1008.31